createdAt,value
2019-05-26T00:00:13.791Z,99.90
2019-05-26T00:02:51.243Z,99.90
2019-05-26T00:05:28.970Z,99.90
2019-05-26T00:08:06.078Z,99.90
2019-05-26T00:10:43.582Z,99.90
2019-05-26T00:13:20.824Z,99.90
2019-05-26T00:15:58.128Z,99.90
2019-05-26T00:18:35.325Z,99.90
2019-05-26T00:21:12.694Z,99.90
2019-05-26T00:23:50.323Z,99.90
2019-05-26T00:26:27.927Z,99.90
2019-05-26T00:29:06.435Z,99.90
2019-05-26T00:31:44.358Z,99.90
2019-05-26T00:34:21.874Z,99.90
2019-05-26T00:36:59.324Z,99.90
2019-05-26T00:39:36.758Z,99.90
2019-05-26T00:42:14.295Z,99.90
2019-05-26T00:44:51.687Z,99.90
2019-05-26T00:47:29.356Z,99.90
2019-05-26T00:50:07.376Z,99.90
2019-05-26T00:52:45.100Z,99.90
2019-05-26T00:55:22.461Z,99.90
2019-05-26T00:58:00.116Z,99.90
2019-05-26T01:00:42.335Z,99.90
2019-05-26T01:03:20.091Z,99.90
2019-05-26T01:05:58.513Z,99.90
2019-05-26T01:08:35.889Z,99.90
2019-05-26T01:11:13.078Z,99.90
2019-05-26T01:13:50.502Z,99.90
2019-05-26T01:16:28.739Z,99.90
2019-05-26T01:19:06.347Z,99.90
2019-05-26T01:21:43.875Z,99.90
2019-05-26T01:24:21.212Z,99.90
2019-05-26T01:26:58.653Z,99.90
2019-05-26T01:29:36.148Z,99.90
2019-05-26T01:32:14.493Z,99.90
2019-05-26T01:34:51.922Z,99.90
2019-05-26T01:37:29.596Z,99.90
2019-05-26T01:40:07.458Z,99.90
2019-05-26T01:42:44.958Z,99.90
2019-05-26T01:45:22.380Z,99.90
2019-05-26T01:48:00.132Z,99.90
2019-05-26T01:50:37.534Z,99.90
2019-05-26T01:53:14.826Z,99.90
2019-05-26T01:55:52.165Z,99.90
2019-05-26T01:58:29.828Z,99.90
2019-05-26T02:01:07.302Z,99.90
2019-05-26T02:03:44.669Z,99.90
2019-05-26T02:06:22.034Z,99.90
2019-05-26T02:09:00.491Z,99.90
2019-05-26T02:11:38.256Z,99.90
2019-05-26T02:14:15.438Z,99.90
2019-05-26T02:16:52.752Z,99.90
2019-05-26T02:19:31.039Z,99.90
2019-05-26T02:22:08.841Z,99.90
2019-05-26T02:24:46.394Z,99.90
2019-05-26T02:27:24.422Z,99.90
2019-05-26T02:30:01.684Z,99.90
2019-05-26T02:32:40.284Z,99.90
2019-05-26T02:35:18.484Z,99.90
2019-05-26T02:37:55.829Z,99.90
2019-05-26T02:40:33.648Z,99.90
2019-05-26T02:43:13.692Z,99.90
2019-05-26T02:45:51.120Z,99.90
2019-05-26T02:48:28.526Z,99.90
2019-05-26T02:51:06.244Z,99.90
2019-05-26T02:53:50.312Z,99.90
2019-05-26T02:56:27.807Z,99.90
2019-05-26T02:59:06.464Z,99.90
2019-05-26T03:02:00.879Z,99.90
2019-05-26T03:04:23.647Z,99.90
2019-05-26T03:07:02.788Z,99.90
2019-05-26T03:09:41.826Z,99.90
2019-05-26T03:12:35.155Z,99.90
2019-05-26T03:15:13.800Z,99.90
2019-05-26T03:17:52.710Z,99.90
2019-05-26T03:20:32.800Z,99.90
2019-05-26T03:23:10.672Z,99.90
2019-05-26T03:25:48.067Z,99.90
2019-05-26T03:28:25.440Z,99.90
2019-05-26T03:31:02.770Z,99.90
2019-05-26T03:33:40.382Z,99.90
2019-05-26T03:36:17.786Z,99.90
2019-05-26T03:38:55.213Z,99.90
2019-05-26T03:41:32.341Z,99.90
2019-05-26T03:44:10.825Z,99.90
2019-05-26T03:46:48.289Z,99.90
2019-05-26T03:49:25.646Z,99.90
2019-05-26T03:52:03.067Z,99.90
2019-05-26T03:54:41.475Z,99.90
2019-05-26T03:57:19.043Z,99.90
2019-05-26T03:59:56.471Z,99.90
2019-05-26T04:02:33.834Z,99.90
2019-05-26T04:05:11.582Z,99.90
2019-05-26T04:07:48.848Z,99.90
2019-05-26T04:10:26.370Z,99.90
2019-05-26T04:13:03.817Z,99.90
2019-05-26T04:15:41.402Z,99.90
2019-05-26T04:18:18.869Z,99.90
2019-05-26T04:20:56.109Z,99.90
2019-05-26T04:23:33.859Z,99.90
2019-05-26T04:26:11.624Z,99.90
2019-05-26T04:28:50.830Z,99.90
2019-05-26T04:31:28.233Z,99.90
2019-05-26T04:34:05.633Z,99.90
2019-05-26T04:36:43.576Z,99.90
2019-05-26T04:39:20.890Z,99.90
2019-05-26T04:41:58.707Z,99.90
2019-05-26T04:44:36.050Z,99.90
2019-05-26T04:47:13.255Z,99.90
2019-05-26T04:49:50.814Z,99.90
2019-05-26T04:52:28.311Z,99.90
2019-05-26T04:55:07.300Z,99.90
2019-05-26T04:57:44.702Z,99.90
2019-05-26T05:00:22.235Z,99.90
2019-05-26T05:03:03.314Z,99.90
2019-05-26T05:05:39.626Z,99.90
2019-05-26T05:08:16.660Z,99.90
2019-05-26T05:10:54.003Z,99.90
2019-05-26T05:13:31.605Z,99.90
2019-05-26T05:16:09.843Z,99.90
2019-05-26T05:18:47.379Z,99.90
2019-05-26T05:21:24.801Z,99.90
2019-05-26T05:24:13.924Z,99.90
2019-05-26T05:26:52.246Z,99.90
2019-05-26T05:29:30.561Z,99.90
2019-05-26T05:32:08.186Z,99.90
2019-05-26T05:34:46.334Z,99.90
2019-05-26T05:37:25.291Z,99.90
2019-05-26T05:40:03.780Z,99.90
2019-05-26T05:42:41.198Z,99.90
2019-05-26T05:45:19.032Z,99.90
2019-05-26T05:47:57.364Z,99.90
2019-05-26T05:50:38.256Z,99.90
2019-05-26T05:53:14.116Z,99.90
2019-05-26T05:55:51.403Z,99.90
2019-05-26T05:58:30.292Z,99.90
2019-05-26T06:01:07.511Z,99.90
2019-05-26T06:03:45.236Z,99.90
2019-05-26T06:06:22.524Z,99.90
2019-05-26T06:08:59.917Z,99.90
2019-05-26T06:11:37.814Z,99.90
2019-05-26T06:14:15.478Z,99.90
2019-05-26T06:16:53.270Z,99.90
2019-05-26T06:19:31.298Z,99.90
2019-05-26T06:22:08.759Z,99.90
2019-05-26T06:24:46.308Z,99.90
2019-05-26T06:27:24.299Z,99.90
2019-05-26T06:30:01.495Z,99.90
2019-05-26T06:32:39.661Z,99.90
2019-05-26T06:35:16.936Z,99.90
2019-05-26T06:37:56.659Z,99.90
2019-05-26T06:40:35.581Z,99.90
2019-05-26T06:43:13.041Z,99.90
2019-05-26T06:45:50.992Z,99.90
2019-05-26T06:48:28.491Z,99.90
2019-05-26T06:51:06.058Z,99.90
2019-05-26T06:53:44.959Z,99.90
2019-05-26T06:56:22.308Z,99.90
2019-05-26T06:59:02.756Z,99.90
2019-05-26T07:01:38.797Z,99.90
2019-05-26T07:04:16.648Z,99.90
2019-05-26T07:06:54.045Z,99.90
2019-05-26T07:09:33.432Z,99.90
2019-05-26T07:12:10.910Z,99.90
2019-05-26T07:14:48.688Z,99.90
2019-05-26T07:17:26.178Z,99.90
2019-05-26T07:20:05.538Z,99.90
2019-05-26T07:22:49.261Z,99.90
2019-05-26T07:25:27.209Z,99.90
2019-05-26T07:28:06.313Z,99.90
2019-05-26T07:30:44.612Z,99.90
2019-05-26T07:33:23.253Z,99.90
2019-05-26T07:36:02.068Z,99.90
2019-05-26T07:38:40.894Z,99.90
2019-05-26T07:41:19.102Z,99.90
2019-05-26T07:43:56.557Z,99.90
2019-05-26T07:46:34.536Z,99.90
2019-05-26T07:49:12.078Z,99.90
2019-05-26T07:51:51.021Z,99.90
2019-05-26T07:54:28.420Z,99.90
2019-05-26T07:57:09.256Z,99.90
2019-05-26T07:59:46.575Z,99.90
2019-05-26T08:02:24.402Z,99.90
2019-05-26T08:05:01.738Z,99.90
2019-05-26T08:07:42.505Z,99.90
2019-05-26T08:10:19.895Z,99.90
2019-05-26T08:12:57.523Z,99.90
2019-05-26T08:15:35.307Z,99.90
2019-05-26T08:18:15.448Z,99.90
2019-05-26T08:20:53.561Z,99.90
2019-05-26T08:23:30.948Z,99.90
2019-05-26T08:26:08.463Z,99.90
2019-05-26T08:28:46.409Z,99.90
2019-05-26T08:31:24.491Z,99.90
2019-05-26T08:34:02.008Z,99.90
2019-05-26T08:36:39.571Z,99.90
2019-05-26T08:39:17.813Z,99.90
2019-05-26T08:41:55.102Z,99.90
2019-05-26T08:44:32.458Z,99.90
2019-05-26T08:47:11.589Z,99.90
2019-05-26T08:49:49.579Z,99.90
2019-05-26T08:52:27.170Z,99.90
2019-05-26T08:55:04.906Z,99.90
2019-05-26T08:57:43.356Z,99.90
2019-05-26T09:00:21.193Z,99.90
2019-05-26T09:02:58.802Z,99.90
2019-05-26T09:05:36.029Z,99.90
2019-05-26T09:08:13.356Z,99.90
2019-05-26T09:10:51.361Z,99.90
2019-05-26T09:13:30.421Z,99.90
2019-05-26T09:16:08.351Z,99.90
2019-05-26T09:18:46.502Z,99.90
2019-05-26T09:21:24.107Z,99.90
2019-05-26T09:24:02.416Z,99.90
2019-05-26T09:26:40.190Z,99.90
2019-05-26T09:29:18.018Z,99.90
2019-05-26T09:31:56.374Z,99.90
2019-05-26T09:34:33.714Z,99.90
2019-05-26T09:37:11.233Z,99.90
2019-05-26T09:39:48.634Z,99.90
2019-05-26T09:42:26.024Z,99.90
2019-05-26T09:45:03.230Z,99.90
2019-05-26T09:47:42.036Z,99.90
2019-05-26T09:50:19.425Z,99.90
2019-05-26T09:52:58.222Z,99.90
2019-05-26T09:55:35.764Z,99.90
2019-05-26T09:58:13.293Z,99.90
2019-05-26T10:00:50.582Z,99.90
2019-05-26T10:03:28.007Z,99.90
2019-05-26T10:06:05.478Z,99.90
2019-05-26T10:08:43.534Z,99.90
2019-05-26T10:11:21.343Z,99.90
2019-05-26T10:13:59.665Z,99.90
2019-05-26T10:16:37.226Z,99.90
2019-05-26T10:19:14.636Z,99.90
2019-05-26T10:21:52.047Z,99.90
2019-05-26T10:24:30.175Z,99.90
2019-05-26T10:27:09.645Z,99.90
2019-05-26T10:29:47.242Z,99.50
2019-05-26T10:32:24.512Z,99.60
2019-05-26T10:35:02.734Z,99.50
2019-05-26T10:37:43.624Z,99.40
2019-05-26T10:40:22.154Z,98.90
2019-05-26T10:42:59.782Z,99.00
2019-05-26T10:45:44.282Z,98.70
2019-05-26T10:48:21.774Z,98.00
2019-05-26T10:51:01.302Z,98.30
2019-05-26T10:53:38.747Z,97.50
2019-05-26T10:56:16.112Z,97.20
2019-05-26T10:58:53.516Z,97.30
2019-05-26T11:01:31.311Z,97.60
2019-05-26T11:04:09.241Z,96.90
2019-05-26T11:06:46.733Z,96.60
2019-05-26T11:09:24.322Z,97.00
2019-05-26T11:12:02.275Z,96.50
2019-05-26T11:14:41.320Z,96.90
2019-05-26T11:17:18.731Z,96.10
2019-05-26T11:19:57.897Z,95.60
2019-05-26T11:22:35.472Z,95.30
2019-05-26T11:25:13.375Z,95.80
2019-05-26T11:27:51.120Z,95.30
2019-05-26T11:30:29.425Z,95.40
2019-05-26T11:33:06.937Z,95.50
2019-05-26T11:35:44.409Z,95.80
2019-05-26T11:38:22.231Z,96.20
2019-05-26T11:40:59.811Z,95.90
2019-05-26T11:43:37.557Z,95.90
2019-05-26T11:46:16.696Z,96.10
2019-05-26T11:49:06.007Z,95.40
2019-05-26T11:51:43.241Z,95.70
2019-05-26T11:54:20.685Z,95.80
2019-05-26T11:57:03.704Z,96.20
2019-05-26T11:59:46.839Z,95.70
2019-05-26T12:02:21.863Z,95.40
2019-05-26T12:04:59.354Z,95.40
2019-05-26T12:07:37.081Z,95.50
2019-05-26T12:10:16.487Z,94.30
2019-05-26T12:12:54.041Z,94.40
2019-05-26T12:15:32.359Z,94.30
2019-05-26T12:18:10.153Z,93.40
2019-05-26T12:20:47.603Z,92.30
2019-05-26T12:23:24.887Z,93.00
2019-05-26T12:26:02.285Z,92.80
2019-05-26T12:28:40.134Z,92.70
2019-05-26T12:31:17.462Z,92.80
2019-05-26T12:33:55.312Z,92.50
2019-05-26T12:36:32.583Z,92.70
2019-05-26T12:39:10.415Z,92.50
2019-05-26T12:41:48.230Z,92.40
2019-05-26T12:44:25.500Z,92.20
2019-05-26T12:47:03.145Z,92.60
2019-05-26T12:49:52.558Z,92.90
2019-05-26T12:52:29.930Z,92.70
2019-05-26T12:55:09.695Z,92.70
2019-05-26T12:57:47.509Z,92.50
2019-05-26T13:00:25.177Z,92.20
2019-05-26T13:03:02.688Z,92.20
2019-05-26T13:05:40.016Z,92.40
2019-05-26T13:08:17.714Z,92.30
2019-05-26T13:10:55.517Z,91.70
2019-05-26T13:13:33.744Z,92.10
2019-05-26T13:16:11.306Z,92.50
2019-05-26T13:18:50.498Z,92.80
2019-05-26T13:21:27.904Z,92.40
2019-05-26T13:24:06.000Z,92.70
2019-05-26T13:26:43.453Z,92.90
2019-05-26T13:29:20.577Z,92.50
2019-05-26T13:31:57.918Z,92.70
2019-05-26T13:34:37.151Z,92.50
2019-05-26T13:37:14.401Z,92.40
2019-05-26T13:39:54.523Z,92.80
2019-05-26T13:42:34.302Z,93.50
2019-05-26T13:45:22.333Z,93.30
2019-05-26T13:47:52.188Z,93.50
2019-05-26T13:50:29.367Z,93.90
2019-05-26T13:53:08.385Z,93.90
2019-05-26T13:55:45.704Z,94.50
2019-05-26T13:58:24.251Z,94.80
2019-05-26T14:01:01.760Z,94.80
2019-05-26T14:03:40.420Z,95.00
2019-05-26T14:06:17.748Z,94.90
2019-05-26T14:08:55.260Z,95.20
2019-05-26T14:11:33.127Z,95.40
2019-05-26T14:14:10.552Z,95.50
2019-05-26T14:16:49.557Z,95.80
2019-05-26T14:19:29.326Z,95.60
2019-05-26T14:22:06.772Z,95.70
2019-05-26T14:24:53.954Z,95.90
2019-05-26T14:27:30.057Z,95.90
2019-05-26T14:30:08.950Z,96.00
2019-05-26T14:32:46.820Z,96.30
2019-05-26T14:35:27.177Z,96.20
2019-05-26T14:38:07.545Z,96.20
2019-05-26T14:40:45.388Z,96.30
2019-05-26T14:43:24.332Z,96.30
2019-05-26T14:46:02.017Z,96.40
2019-05-26T14:48:42.456Z,96.40
2019-05-26T14:51:21.685Z,96.50
2019-05-26T14:53:59.085Z,96.60
2019-05-26T14:56:36.938Z,97.00
2019-05-26T14:59:14.387Z,97.30
2019-05-26T15:01:52.961Z,97.30
2019-05-26T15:04:31.296Z,97.70
2019-05-26T15:07:10.158Z,97.80
2019-05-26T15:09:47.364Z,97.90
2019-05-26T15:12:24.862Z,98.50
2019-05-26T15:15:03.417Z,97.90
2019-05-26T15:17:42.188Z,98.10
2019-05-26T15:20:20.301Z,98.20
2019-05-26T15:22:58.036Z,98.20
2019-05-26T15:25:37.110Z,98.20
2019-05-26T15:28:15.359Z,98.10
2019-05-26T15:30:53.637Z,98.60
2019-05-26T15:33:30.953Z,98.60
2019-05-26T15:36:08.349Z,99.00
2019-05-26T15:38:45.801Z,99.00
2019-05-26T15:41:24.998Z,99.30
2019-05-26T15:44:02.328Z,99.00
2019-05-26T15:46:40.126Z,99.00
2019-05-26T15:49:17.551Z,99.10
2019-05-26T15:51:55.008Z,98.90
2019-05-26T15:54:33.023Z,99.00
2019-05-26T15:57:11.021Z,99.20
2019-05-26T15:59:48.922Z,99.40
2019-05-26T16:02:26.205Z,99.40
2019-05-26T16:05:04.019Z,99.50
2019-05-26T16:07:41.756Z,99.60
2019-05-26T16:10:21.092Z,99.70
2019-05-26T16:13:01.319Z,99.90
2019-05-26T16:15:38.661Z,99.90
2019-05-26T16:18:16.436Z,99.90
2019-05-26T16:21:02.740Z,99.90
2019-05-26T16:23:33.476Z,99.90
2019-05-26T16:26:12.271Z,99.90
2019-05-26T16:28:49.604Z,99.90
2019-05-26T16:31:27.674Z,99.90
2019-05-26T16:34:06.390Z,99.90
2019-05-26T16:36:43.735Z,99.90
2019-05-26T16:39:36.073Z,99.90
2019-05-26T16:42:02.379Z,99.90
2019-05-26T16:44:39.704Z,99.90
2019-05-26T16:47:17.084Z,99.90
2019-05-26T16:49:54.211Z,99.90
2019-05-26T16:52:32.038Z,99.90
2019-05-26T16:55:09.795Z,99.90
2019-05-26T16:57:47.533Z,99.90
2019-05-26T17:00:25.280Z,99.90
2019-05-26T17:03:02.603Z,99.90
2019-05-26T17:05:40.237Z,99.90
2019-05-26T17:08:17.284Z,99.90
2019-05-26T17:10:54.639Z,99.90
2019-05-26T17:13:33.175Z,99.90
2019-05-26T17:16:10.865Z,99.90
2019-05-26T17:18:48.091Z,99.90
2019-05-26T17:21:25.455Z,99.90
2019-05-26T17:24:03.062Z,99.90
2019-05-26T17:26:40.905Z,99.90
2019-05-26T17:29:18.556Z,99.90
2019-05-26T17:31:56.158Z,99.90
2019-05-26T17:34:33.452Z,99.90
2019-05-26T17:37:11.053Z,99.90
2019-05-26T17:39:48.366Z,99.90
2019-05-26T17:42:25.802Z,99.90
2019-05-26T17:45:03.744Z,99.90
2019-05-26T17:47:43.967Z,99.90
2019-05-26T17:50:21.582Z,99.90
2019-05-26T17:52:59.760Z,99.90
2019-05-26T17:55:39.711Z,99.90
2019-05-26T17:58:17.676Z,99.90
2019-05-26T18:00:54.932Z,99.90
2019-05-26T18:03:32.871Z,99.90
2019-05-26T18:06:10.239Z,99.90
2019-05-26T18:08:47.544Z,99.90
2019-05-26T18:11:27.155Z,99.90
2019-05-26T18:14:05.185Z,99.90
2019-05-26T18:16:42.384Z,99.90
2019-05-26T18:19:20.204Z,99.90
2019-05-26T18:21:58.851Z,99.90
2019-05-26T18:24:36.300Z,99.90
2019-05-26T18:27:13.866Z,99.90
2019-05-26T18:29:53.468Z,99.90
2019-05-26T18:32:31.145Z,99.90
2019-05-26T18:35:10.086Z,99.90
2019-05-26T18:37:47.602Z,99.90
2019-05-26T18:40:24.908Z,99.90
2019-05-26T18:43:02.757Z,99.90
2019-05-26T18:45:41.074Z,99.90
2019-05-26T18:48:18.882Z,99.90
2019-05-26T18:50:56.615Z,99.90
2019-05-26T18:53:34.367Z,99.90
2019-05-26T18:56:11.805Z,99.90
2019-05-26T18:58:49.877Z,99.90
2019-05-26T19:01:27.765Z,99.90
2019-05-26T19:04:05.778Z,99.90
2019-05-26T19:06:43.271Z,99.90
2019-05-26T19:09:32.609Z,99.90
2019-05-26T19:12:10.781Z,99.90
2019-05-26T19:14:48.235Z,99.90
2019-05-26T19:17:26.458Z,99.90
2019-05-26T19:20:15.547Z,99.90
2019-05-26T19:22:43.289Z,99.90
2019-05-26T19:25:21.191Z,99.90
2019-05-26T19:27:58.917Z,99.90
2019-05-26T19:30:40.375Z,99.90
2019-05-26T19:33:17.857Z,99.90
2019-05-26T19:35:55.430Z,99.90
2019-05-26T19:38:32.894Z,99.90
2019-05-26T19:41:10.435Z,99.90
2019-05-26T19:43:48.009Z,99.90
2019-05-26T19:46:28.326Z,99.90
2019-05-26T19:49:06.306Z,99.90
2019-05-26T19:51:43.818Z,99.90
2019-05-26T19:54:22.203Z,99.90
2019-05-26T19:56:59.747Z,99.90
2019-05-26T19:59:40.522Z,99.90
2019-05-26T20:02:18.998Z,99.90
2019-05-26T20:05:28.519Z,99.90
2019-05-26T20:08:20.664Z,99.90
2019-05-26T20:10:58.182Z,99.90
2019-05-26T20:13:35.355Z,99.90
2019-05-26T20:16:14.576Z,99.90
2019-05-26T20:18:51.912Z,99.90
2019-05-26T20:21:29.505Z,99.90
2019-05-26T20:24:07.364Z,99.90
2019-05-26T20:26:45.186Z,99.90
2019-05-26T20:29:26.437Z,99.90
2019-05-26T20:32:05.150Z,99.90
2019-05-26T20:34:42.945Z,99.90
2019-05-26T20:37:20.627Z,99.90
2019-05-26T20:40:00.931Z,99.90
2019-05-26T20:42:38.559Z,99.90
2019-05-26T20:45:16.804Z,99.90
2019-05-26T20:47:54.093Z,99.90
2019-05-26T20:50:31.480Z,99.90
2019-05-26T20:53:08.772Z,99.90
2019-05-26T20:55:46.199Z,99.90
2019-05-26T20:58:23.603Z,99.90
2019-05-26T21:01:00.910Z,99.90
2019-05-26T21:03:38.505Z,99.90
2019-05-26T21:06:15.905Z,99.90
2019-05-26T21:08:53.255Z,99.90
2019-05-26T21:11:30.923Z,99.90
2019-05-26T21:14:08.394Z,99.90
2019-05-26T21:16:45.620Z,99.90
2019-05-26T21:19:23.151Z,99.90
2019-05-26T21:22:00.723Z,99.90
2019-05-26T21:24:38.215Z,99.90
2019-05-26T21:27:15.828Z,99.90
2019-05-26T21:29:53.822Z,99.90
2019-05-26T21:32:32.389Z,99.90
2019-05-26T21:35:10.747Z,99.90
2019-05-26T21:37:48.316Z,99.90
2019-05-26T21:40:25.668Z,99.90
2019-05-26T21:43:03.265Z,99.90
2019-05-26T21:45:41.946Z,99.90
2019-05-26T21:48:19.416Z,99.90
2019-05-26T21:50:56.713Z,99.90
2019-05-26T21:53:34.069Z,99.90
2019-05-26T21:56:11.572Z,99.90
2019-05-26T21:58:49.066Z,99.90
2019-05-26T22:01:26.866Z,99.90
2019-05-26T22:04:04.365Z,99.90
2019-05-26T22:06:41.614Z,99.90
2019-05-26T22:09:19.154Z,99.90
2019-05-26T22:11:56.546Z,99.90
2019-05-26T22:14:33.840Z,99.90
2019-05-26T22:17:11.388Z,99.90
2019-05-26T22:19:49.610Z,99.90
2019-05-26T22:22:26.840Z,99.90
2019-05-26T22:25:04.377Z,99.90
2019-05-26T22:27:42.050Z,99.90
2019-05-26T22:30:20.061Z,99.90
2019-05-26T22:33:00.747Z,99.90
2019-05-26T22:35:38.483Z,99.90
2019-05-26T22:38:16.119Z,99.90
2019-05-26T22:40:53.426Z,99.90
2019-05-26T22:43:30.699Z,99.90
2019-05-26T22:46:08.253Z,99.90
2019-05-26T22:48:45.827Z,99.90
2019-05-26T22:51:23.343Z,99.90
2019-05-26T22:54:00.693Z,99.90
2019-05-26T22:56:38.400Z,99.90
2019-05-26T22:59:15.864Z,99.90
2019-05-26T23:01:53.337Z,99.90
2019-05-26T23:04:31.403Z,99.90
2019-05-26T23:07:09.003Z,99.90
2019-05-26T23:09:46.743Z,99.90
2019-05-26T23:12:24.911Z,99.90
2019-05-26T23:15:02.369Z,99.90
2019-05-26T23:17:41.571Z,99.90
2019-05-26T23:20:18.949Z,99.90
2019-05-26T23:22:56.225Z,99.90
2019-05-26T23:25:33.581Z,99.90
2019-05-26T23:28:11.379Z,99.90
2019-05-26T23:30:50.524Z,99.90
2019-05-26T23:33:27.862Z,99.90
2019-05-26T23:36:05.353Z,99.90
2019-05-26T23:38:42.948Z,99.90
2019-05-26T23:41:20.462Z,99.90
2019-05-26T23:43:57.836Z,99.90
2019-05-26T23:46:35.250Z,99.90
2019-05-26T23:49:12.704Z,99.90
2019-05-26T23:51:50.142Z,99.90
2019-05-26T23:54:27.631Z,99.90
2019-05-26T23:57:04.954Z,99.90
2019-05-26T23:59:42.542Z,99.90
